createdAt,value
2023-03-12T00:00:26.332Z,98685.97
2023-03-12T00:02:53.999Z,98681.53
2023-03-12T00:05:22.627Z,98686.94
2023-03-12T00:07:50.907Z,98670.66
2023-03-12T00:10:19.862Z,98674.47
2023-03-12T00:13:08.477Z,98669.78
2023-03-12T00:15:38.254Z,98665.13
2023-03-12T00:18:06.887Z,98662.09
2023-03-12T00:20:34.399Z,98661.53
2023-03-12T00:23:02.204Z,98663.19
2023-03-12T00:25:34.196Z,98661.38
2023-03-12T00:28:03.499Z,98655.50
2023-03-12T00:30:31.102Z,98654.66
2023-03-12T00:33:03.868Z,98645.94
2023-03-12T00:35:32.766Z,98647.88
2023-03-12T00:38:00.348Z,98636.63
2023-03-12T00:40:28.126Z,98637.66
2023-03-12T00:42:55.703Z,98635.59
2023-03-12T00:45:23.188Z,98627.31
2023-03-12T00:47:50.685Z,98621.44
2023-03-12T00:50:18.299Z,98619.25
2023-03-12T00:52:45.988Z,98619.72
2023-03-12T00:55:13.577Z,98617.53
2023-03-12T00:57:41.034Z,98612.72
2023-03-12T01:00:10.840Z,98608.03
2023-03-12T01:02:39.662Z,98601.06
2023-03-12T01:05:11.086Z,98614.00
2023-03-12T01:07:39.588Z,98603.94
2023-03-12T01:10:08.928Z,98599.22
2023-03-12T01:12:37.187Z,98601.03
2023-03-12T01:15:05.600Z,98579.91
2023-03-12T01:17:33.157Z,98591.06
2023-03-12T01:20:00.726Z,98573.53
2023-03-12T01:22:28.204Z,98582.88
2023-03-12T01:24:55.891Z,98587.19
2023-03-12T01:27:23.406Z,98580.69
2023-03-12T01:29:51.575Z,98585.00
2023-03-12T01:32:19.308Z,98587.63
2023-03-12T01:34:46.988Z,98583.34
2023-03-12T01:37:14.636Z,98588.84
2023-03-12T01:39:42.101Z,98588.47
2023-03-12T01:42:09.810Z,98579.59
2023-03-12T01:44:50.163Z,98583.91
2023-03-12T01:47:17.832Z,98575.88
2023-03-12T01:49:46.700Z,98571.53
2023-03-12T01:52:18.808Z,98573.63
2023-03-12T01:54:55.353Z,98572.78
2023-03-12T01:57:33.074Z,98559.19
2023-03-12T02:00:09.765Z,98562.09
2023-03-12T02:02:45.705Z,98551.25
2023-03-12T02:05:32.272Z,98560.03
2023-03-12T02:08:00.618Z,98556.94
2023-03-12T02:10:29.001Z,98552.69
2023-03-12T02:12:56.761Z,98544.34
2023-03-12T02:15:24.656Z,98534.44
2023-03-12T02:17:54.286Z,98541.19
2023-03-12T02:20:50.677Z,98541.56
2023-03-12T02:23:24.222Z,98531.97
2023-03-12T02:25:55.972Z,98521.09
2023-03-12T02:28:27.548Z,98520.88
2023-03-12T02:31:00.707Z,98535.41
2023-03-12T02:33:28.683Z,98530.50
2023-03-12T02:35:56.713Z,98534.22
2023-03-12T02:38:37.808Z,98532.28
2023-03-12T02:41:17.021Z,98540.97
2023-03-12T02:43:51.801Z,98546.75
2023-03-12T02:46:20.901Z,98537.63
2023-03-12T02:48:49.025Z,98538.84
2023-03-12T02:51:16.686Z,98533.09
2023-03-12T02:53:44.121Z,98535.88
2023-03-12T02:56:11.796Z,98534.06
2023-03-12T02:58:40.446Z,98530.13
2023-03-12T03:01:09.176Z,98532.19
2023-03-12T03:03:36.990Z,98521.66
2023-03-12T03:06:04.845Z,98529.22
2023-03-12T03:08:35.031Z,98529.44
2023-03-12T03:11:03.647Z,98525.53
2023-03-12T03:13:31.377Z,98534.38
2023-03-12T03:16:01.972Z,98532.59
2023-03-12T03:18:32.381Z,98538.81
2023-03-12T03:21:04.952Z,98534.28
2023-03-12T03:23:35.423Z,98538.94
2023-03-12T03:26:03.664Z,98527.56
2023-03-12T03:28:31.500Z,98529.38
2023-03-12T03:31:01.793Z,98538.94
2023-03-12T03:33:35.550Z,98544.44
2023-03-12T03:36:06.389Z,98542.88
2023-03-12T03:38:37.840Z,98542.06
2023-03-12T03:41:11.281Z,98531.75
2023-03-12T03:43:43.473Z,98533.81
2023-03-12T03:46:12.603Z,98527.84
2023-03-12T03:48:43.582Z,98535.47
2023-03-12T03:51:12.153Z,98530.91
2023-03-12T03:53:43.925Z,98539.78
2023-03-12T03:56:15.153Z,98537.97
2023-03-12T03:58:50.326Z,98535.75
2023-03-12T04:01:20.807Z,98539.31
2023-03-12T04:03:49.719Z,98535.84
2023-03-12T04:06:23.344Z,98541.94
2023-03-12T04:08:52.244Z,98532.25
2023-03-12T04:11:24.550Z,98539.91
2023-03-12T04:13:53.184Z,98539.78
2023-03-12T04:16:25.704Z,98545.19
2023-03-12T04:18:54.977Z,98551.50
2023-03-12T04:21:24.115Z,98554.41
2023-03-12T04:23:55.208Z,98544.69
2023-03-12T04:26:26.395Z,98550.66
2023-03-12T04:28:56.441Z,98558.44
2023-03-12T04:31:24.188Z,98555.94
2023-03-12T04:33:52.142Z,98565.28
2023-03-12T04:36:23.650Z,98564.31
2023-03-12T04:38:52.959Z,98572.09
2023-03-12T04:41:27.148Z,98591.50
2023-03-12T04:44:02.023Z,98586.22
2023-03-12T04:46:30.118Z,98596.50
2023-03-12T04:48:58.250Z,98596.41
2023-03-12T04:51:26.145Z,98614.59
2023-03-12T04:53:53.858Z,98621.03
2023-03-12T04:56:22.781Z,98644.03
2023-03-12T04:58:53.420Z,98664.53
2023-03-12T05:01:30.857Z,98685.59
2023-03-12T05:03:59.252Z,98697.34
2023-03-12T05:06:27.167Z,98719.84
2023-03-12T05:08:57.614Z,98728.84
2023-03-12T05:11:25.830Z,98727.78
2023-03-12T05:13:54.250Z,98737.69
2023-03-12T05:16:23.629Z,98743.06
2023-03-12T05:18:54.177Z,98730.50
2023-03-12T05:21:23.765Z,98709.31
2023-03-12T05:23:54.816Z,98709.19
2023-03-12T05:26:29.475Z,98706.69
2023-03-12T05:29:05.935Z,98734.22
2023-03-12T05:31:38.912Z,98769.69
2023-03-12T05:34:08.370Z,98808.75
2023-03-12T05:36:39.795Z,98800.34
2023-03-12T05:39:08.418Z,98823.25
2023-03-12T05:41:36.795Z,98829.34
2023-03-12T05:44:16.193Z,98828.88
2023-03-12T05:46:47.794Z,98838.25
2023-03-12T05:49:16.634Z,98841.38
2023-03-12T05:51:44.336Z,98850.25
2023-03-12T05:54:12.090Z,98856.44
2023-03-12T05:56:39.920Z,98864.97
2023-03-12T05:59:10.576Z,98875.38
2023-03-12T06:01:42.060Z,98889.38
2023-03-12T06:04:10.471Z,98901.13
2023-03-12T06:06:39.073Z,98899.41
2023-03-12T06:09:08.372Z,98905.75
2023-03-12T06:11:36.477Z,98917.00
2023-03-12T06:14:04.735Z,98931.31
2023-03-12T06:16:33.983Z,98938.34
2023-03-12T06:19:03.232Z,98928.19
2023-03-12T06:21:35.328Z,98928.09
2023-03-12T06:24:04.822Z,98953.97
2023-03-12T06:26:52.983Z,98954.63
2023-03-12T06:29:20.577Z,98927.78
2023-03-12T06:31:48.413Z,98962.13
2023-03-12T06:34:23.749Z,98957.41
2023-03-12T06:36:51.603Z,98955.53
2023-03-12T06:39:19.155Z,98966.88
2023-03-12T06:41:46.748Z,98961.81
2023-03-12T06:44:14.410Z,98969.81
2023-03-12T06:46:48.005Z,98970.75
2023-03-12T06:49:15.659Z,98966.88
2023-03-12T06:51:43.153Z,98980.97
2023-03-12T06:54:10.856Z,98994.31
2023-03-12T06:56:38.639Z,98979.69
2023-03-12T06:59:06.881Z,98994.84
2023-03-12T07:01:35.733Z,99009.78
2023-03-12T07:04:03.410Z,99020.47
2023-03-12T07:06:31.373Z,99019.72
2023-03-12T07:09:05.110Z,99019.31
2023-03-12T07:11:33.173Z,99040.97
2023-03-12T07:14:02.086Z,99052.19
2023-03-12T07:16:31.085Z,99053.06
2023-03-12T07:18:59.800Z,99068.34
2023-03-12T07:21:27.628Z,99081.16
2023-03-12T07:23:55.868Z,99078.31
2023-03-12T07:26:24.041Z,99091.69
2023-03-12T07:28:51.622Z,99084.41
2023-03-12T07:31:19.215Z,99100.38
2023-03-12T07:33:47.435Z,99118.56
2023-03-12T07:36:15.774Z,99115.59
2023-03-12T07:38:46.481Z,99117.53
2023-03-12T07:41:14.152Z,99132.72
2023-03-12T07:43:41.686Z,99129.16
2023-03-12T07:46:09.320Z,99155.53
2023-03-12T07:48:38.772Z,99136.50
2023-03-12T07:51:07.114Z,99149.66
2023-03-12T07:53:34.906Z,99148.88
2023-03-12T07:56:02.844Z,99160.09
2023-03-12T07:58:31.570Z,99158.09
2023-03-12T08:01:00.166Z,99169.34
2023-03-12T08:03:28.220Z,99191.13
2023-03-12T08:06:02.268Z,99192.22
2023-03-12T08:08:31.687Z,99212.22
2023-03-12T08:11:00.147Z,99189.97
2023-03-12T08:13:34.021Z,99201.41
2023-03-12T08:16:01.613Z,99200.53
2023-03-12T08:18:30.460Z,99216.50
2023-03-12T08:21:02.783Z,99221.00
2023-03-12T08:23:30.823Z,99238.34
2023-03-12T08:25:59.470Z,99224.19
2023-03-12T08:28:27.409Z,99225.50
2023-03-12T08:30:56.164Z,99237.81
2023-03-12T08:33:23.787Z,99246.81
2023-03-12T08:35:51.857Z,99255.91
2023-03-12T08:38:19.957Z,99245.97
2023-03-12T08:40:57.033Z,99239.09
2023-03-12T08:43:24.970Z,99257.22
2023-03-12T08:46:01.325Z,99249.31
2023-03-12T08:48:30.892Z,99254.22
2023-03-12T08:51:04.169Z,99261.59
2023-03-12T08:53:34.793Z,99267.19
2023-03-12T08:56:04.535Z,99271.75
2023-03-12T08:58:32.934Z,99280.19
2023-03-12T09:01:00.488Z,99286.47
2023-03-12T09:03:30.008Z,99280.13
2023-03-12T09:06:06.749Z,99292.41
2023-03-12T09:08:36.714Z,99314.81
2023-03-12T09:11:05.898Z,99309.75
2023-03-12T09:13:57.845Z,99324.19
2023-03-12T09:16:22.436Z,99320.72
2023-03-12T09:18:50.164Z,99342.31
2023-03-12T09:21:22.217Z,99349.75
2023-03-12T09:23:50.135Z,99344.09
2023-03-12T09:26:17.679Z,99333.81
2023-03-12T09:28:47.026Z,99353.25
2023-03-12T09:31:15.103Z,99360.75
2023-03-12T09:33:42.729Z,99377.63
2023-03-12T09:36:10.678Z,99386.66
2023-03-12T09:38:38.352Z,99390.38
2023-03-12T09:41:14.679Z,99418.59
2023-03-12T09:43:49.402Z,99417.00
2023-03-12T09:46:46.153Z,99403.84
2023-03-12T09:49:27.306Z,99421.41
2023-03-12T09:51:58.656Z,99426.66
2023-03-12T09:54:38.398Z,99417.53
2023-03-12T09:57:12.836Z,99433.34
2023-03-12T09:59:42.896Z,99441.88
2023-03-12T10:02:22.368Z,99468.28
2023-03-12T10:04:59.710Z,99455.06
2023-03-12T10:07:40.791Z,99460.00
2023-03-12T10:10:23.155Z,99449.66
2023-03-12T10:13:01.222Z,99463.09
2023-03-12T10:15:42.458Z,99466.22
2023-03-12T10:18:31.886Z,99468.38
2023-03-12T10:21:14.144Z,99471.34
2023-03-12T10:23:54.912Z,99486.59
2023-03-12T10:26:26.422Z,99475.84
2023-03-12T10:29:00.992Z,99485.22
2023-03-12T10:31:41.908Z,99497.38
2023-03-12T10:34:20.918Z,99506.28
2023-03-12T10:36:48.613Z,99531.91
2023-03-12T10:39:20.275Z,99509.75
2023-03-12T10:41:49.201Z,99523.59
2023-03-12T10:44:24.560Z,99524.44
2023-03-12T10:47:01.133Z,99532.22
2023-03-12T10:49:34.138Z,99527.56
2023-03-12T10:52:07.345Z,99532.69
2023-03-12T10:54:40.599Z,99535.28
2023-03-12T10:57:08.767Z,99552.94
2023-03-12T10:59:45.565Z,99547.63
2023-03-12T11:02:38.796Z,99568.41
2023-03-12T11:05:24.364Z,99555.88
2023-03-12T11:07:52.883Z,99536.84
2023-03-12T11:10:32.598Z,99549.06
2023-03-12T11:13:21.852Z,99573.19
2023-03-12T11:15:51.426Z,99579.81
2023-03-12T11:18:19.129Z,99601.53
2023-03-12T11:20:50.322Z,99602.47
2023-03-12T11:23:23.460Z,99591.78
2023-03-12T11:25:57.337Z,99598.09
2023-03-12T11:28:32.199Z,99605.59
2023-03-12T11:31:01.152Z,99617.59
2023-03-12T11:33:30.071Z,99629.19
2023-03-12T11:36:08.761Z,99622.69
2023-03-12T11:39:21.395Z,99616.84
2023-03-12T11:42:15.879Z,99634.16
2023-03-12T11:45:03.989Z,99635.44
2023-03-12T11:47:31.731Z,99629.75
2023-03-12T11:50:05.534Z,99641.72
2023-03-12T11:52:42.842Z,99647.88
2023-03-12T11:55:23.609Z,99656.66
2023-03-12T11:58:06.246Z,99658.94
2023-03-12T12:00:38.995Z,99660.50
2023-03-12T12:03:15.801Z,99664.81
2023-03-12T12:06:03.359Z,99673.50
2023-03-12T12:08:39.932Z,99676.03
2023-03-12T12:11:13.500Z,99715.66
2023-03-12T12:13:45.753Z,99688.41
2023-03-12T12:16:37.789Z,99700.78
2023-03-12T12:19:41.018Z,99717.13
2023-03-12T12:22:34.687Z,99707.91
2023-03-12T12:25:35.818Z,99741.25
2023-03-12T12:28:15.672Z,99747.72
2023-03-12T12:30:58.672Z,99758.78
2023-03-12T12:33:50.757Z,99773.38
2023-03-12T12:36:18.780Z,99758.19
2023-03-12T12:38:55.324Z,99804.00
2023-03-12T12:41:32.288Z,99769.78
2023-03-12T12:44:11.506Z,99777.19
2023-03-12T12:46:48.073Z,99784.63
2023-03-12T12:49:26.449Z,99807.28
2023-03-12T12:52:01.026Z,99833.53
2023-03-12T12:54:43.706Z,99835.91
2023-03-12T12:57:24.427Z,99836.66
2023-03-12T13:00:24.841Z,99862.88
2023-03-12T13:02:55.692Z,99851.75
2023-03-12T13:05:37.038Z,99842.69
2023-03-12T13:08:08.800Z,99872.59
2023-03-12T13:10:36.300Z,99876.66
2023-03-12T13:13:07.691Z,99874.91
2023-03-12T13:15:40.849Z,99900.75
2023-03-12T13:18:10.053Z,99899.75
2023-03-12T13:20:48.139Z,99876.41
2023-03-12T13:23:34.252Z,99896.91
2023-03-12T13:26:17.087Z,99896.97
2023-03-12T13:29:06.094Z,99908.09
2023-03-12T13:31:38.626Z,99901.78
2023-03-12T13:34:06.353Z,99907.22
2023-03-12T13:36:38.798Z,99919.00
2023-03-12T13:39:07.746Z,99911.38
2023-03-12T13:41:39.725Z,99931.06
2023-03-12T13:44:29.140Z,99940.88
2023-03-12T13:47:04.075Z,99934.13
2023-03-12T13:49:55.601Z,99947.53
2023-03-12T13:52:26.926Z,99944.91
2023-03-12T13:55:07.178Z,99950.69
2023-03-12T13:57:41.247Z,99955.81
2023-03-12T14:00:28.145Z,99960.81
2023-03-12T14:03:22.578Z,99959.50
2023-03-12T14:06:13.832Z,99969.09
2023-03-12T14:09:24.394Z,99968.69
2023-03-12T14:12:01.862Z,99969.59
2023-03-12T14:14:57.260Z,99978.41
2023-03-12T14:17:27.882Z,99978.28
2023-03-12T14:20:19.570Z,99998.41
2023-03-12T14:23:00.490Z,99985.47
2023-03-12T14:25:46.953Z,100003.41
2023-03-12T14:28:19.175Z,99998.16
2023-03-12T14:30:56.319Z,99999.84
2023-03-12T14:33:26.617Z,100017.31
2023-03-12T14:36:01.779Z,100010.94
2023-03-12T14:38:43.430Z,100018.94
2023-03-12T14:41:22.878Z,100030.94
2023-03-12T14:43:54.515Z,100040.31
2023-03-12T14:46:24.644Z,100026.22
2023-03-12T14:48:57.948Z,100036.78
2023-03-12T14:51:30.332Z,100047.44
2023-03-12T14:54:03.462Z,100057.09
2023-03-12T14:56:36.025Z,100067.63
2023-03-12T14:59:22.672Z,100058.81
2023-03-12T15:01:51.415Z,100071.28
2023-03-12T15:04:24.572Z,100075.47
2023-03-12T15:06:59.289Z,100069.66
2023-03-12T15:09:29.908Z,100087.09
2023-03-12T15:12:02.371Z,100101.00
2023-03-12T15:14:35.743Z,100104.41
2023-03-12T15:17:05.234Z,100105.31
2023-03-12T15:19:34.333Z,100111.84
2023-03-12T15:22:03.553Z,100137.94
2023-03-12T15:24:39.832Z,100139.97
2023-03-12T15:27:25.819Z,100141.97
2023-03-12T15:30:00.989Z,100144.50
2023-03-12T15:32:31.967Z,100150.53
2023-03-12T15:35:11.703Z,100146.88
2023-03-12T15:37:41.245Z,100159.84
2023-03-12T15:40:23.701Z,100156.28
2023-03-12T15:42:57.639Z,100175.41
2023-03-12T15:45:34.587Z,100191.09
2023-03-12T15:48:04.462Z,100195.69
2023-03-12T15:50:35.745Z,100212.50
2023-03-12T15:53:27.214Z,100217.56
2023-03-12T15:56:06.622Z,100217.78
2023-03-12T15:58:36.985Z,100225.66
2023-03-12T16:01:17.503Z,100233.50
2023-03-12T16:03:46.149Z,100245.75
2023-03-12T16:06:20.102Z,100249.25
2023-03-12T16:08:53.226Z,100257.91
2023-03-12T16:11:24.559Z,100265.56
2023-03-12T16:13:58.599Z,100266.59
2023-03-12T16:16:26.198Z,100281.28
2023-03-12T16:18:54.457Z,100292.75
2023-03-12T16:21:22.029Z,100290.16
2023-03-12T16:23:50.248Z,100297.13
2023-03-12T16:26:17.835Z,100296.25
2023-03-12T16:28:46.266Z,100311.03
2023-03-12T16:31:15.900Z,100310.56
2023-03-12T16:33:44.924Z,100321.00
2023-03-12T16:36:17.612Z,100326.16
2023-03-12T16:38:46.887Z,100328.19
2023-03-12T16:41:17.661Z,100327.31
2023-03-12T16:43:48.591Z,100339.56
2023-03-12T16:46:20.822Z,100336.00
2023-03-12T16:48:53.663Z,100336.91
2023-03-12T16:51:21.541Z,100342.03
2023-03-12T16:54:05.541Z,100345.63
2023-03-12T16:56:37.236Z,100358.75
2023-03-12T16:59:13.821Z,100357.94
2023-03-12T17:01:42.401Z,100370.88
2023-03-12T17:04:14.206Z,100362.34
2023-03-12T17:06:42.846Z,100361.41
2023-03-12T17:09:10.583Z,100364.00
2023-03-12T17:11:41.790Z,100365.72
2023-03-12T17:14:19.874Z,100370.25
2023-03-12T17:16:51.763Z,100379.75
2023-03-12T17:19:20.460Z,100383.25
2023-03-12T17:21:49.557Z,100392.88
2023-03-12T17:24:28.105Z,100404.16
2023-03-12T17:26:57.084Z,100400.69
2023-03-12T17:29:24.620Z,100403.28
2023-03-12T17:31:52.413Z,100415.63
2023-03-12T17:34:19.984Z,100422.66
2023-03-12T17:36:47.526Z,100415.91
2023-03-12T17:39:15.514Z,100420.34
2023-03-12T17:41:43.665Z,100425.72
2023-03-12T17:44:14.857Z,100430.09
2023-03-12T17:46:56.431Z,100438.78
2023-03-12T17:49:28.213Z,100445.69
2023-03-12T17:51:56.335Z,100444.81
2023-03-12T17:54:24.113Z,100450.09
2023-03-12T17:56:51.823Z,100449.19
2023-03-12T17:59:19.372Z,100449.28
2023-03-12T18:01:46.898Z,100458.72
2023-03-12T18:04:15.770Z,100465.53
2023-03-12T18:06:43.931Z,100464.75
2023-03-12T18:09:11.409Z,100470.75
2023-03-12T18:11:38.886Z,100468.06
2023-03-12T18:14:07.102Z,100474.06
2023-03-12T18:16:36.265Z,100470.59
2023-03-12T18:19:04.051Z,100476.63
2023-03-12T18:21:32.095Z,100479.91
2023-03-12T18:24:08.327Z,100485.16
2023-03-12T18:26:49.521Z,100484.31
2023-03-12T18:29:17.204Z,100488.66
2023-03-12T18:31:44.933Z,100490.56
2023-03-12T18:34:13.957Z,100486.25
2023-03-12T18:36:41.785Z,100497.66
2023-03-12T18:39:10.007Z,100494.22
2023-03-12T18:41:40.760Z,100502.03
2023-03-12T18:44:13.175Z,100501.13
2023-03-12T18:46:40.777Z,100510.53
2023-03-12T18:49:09.351Z,100508.91
2023-03-12T18:51:40.302Z,100519.19
2023-03-12T18:54:07.867Z,100514.91
2023-03-12T18:56:39.295Z,100521.06
2023-03-12T18:59:09.891Z,100528.75
2023-03-12T19:01:37.686Z,100525.22
2023-03-12T19:04:05.341Z,100530.41
2023-03-12T19:06:44.326Z,100533.06
2023-03-12T19:09:19.692Z,100543.41
2023-03-12T19:11:49.271Z,100540.84
2023-03-12T19:14:16.834Z,100544.03
2023-03-12T19:16:44.990Z,100563.25
2023-03-12T19:19:12.610Z,100560.66
2023-03-12T19:21:40.193Z,100564.00
2023-03-12T19:24:07.744Z,100562.25
2023-03-12T19:26:35.235Z,100567.25
2023-03-12T19:29:05.424Z,100575.97
2023-03-12T19:31:33.518Z,100564.84
2023-03-12T19:34:01.178Z,100574.41
2023-03-12T19:36:29.075Z,100569.09
2023-03-12T19:38:56.552Z,100569.66
2023-03-12T19:41:24.456Z,100574.97
2023-03-12T19:43:51.959Z,100570.47
2023-03-12T19:46:19.957Z,100571.38
2023-03-12T19:48:47.464Z,100574.13
2023-03-12T19:51:14.936Z,100583.69
2023-03-12T19:53:43.702Z,100578.31
2023-03-12T19:56:11.238Z,100579.25
2023-03-12T19:58:45.714Z,100591.25
2023-03-12T20:01:13.565Z,100591.50
2023-03-12T20:03:43.908Z,100595.00
2023-03-12T20:06:12.393Z,100592.41
2023-03-12T20:08:40.193Z,100596.72
2023-03-12T20:11:11.223Z,100595.78
2023-03-12T20:13:40.005Z,100607.06
2023-03-12T20:16:08.407Z,100611.38
2023-03-12T20:18:36.849Z,100606.03
2023-03-12T20:21:04.458Z,100606.03
2023-03-12T20:23:32.830Z,100622.69
2023-03-12T20:26:00.718Z,100613.28
2023-03-12T20:28:28.464Z,100610.72
2023-03-12T20:31:13.724Z,100617.78
2023-03-12T20:33:43.343Z,100619.44
2023-03-12T20:36:14.580Z,100623.00
2023-03-12T20:38:43.042Z,100618.72
2023-03-12T20:41:14.591Z,100618.66
2023-03-12T20:43:44.553Z,100617.78
2023-03-12T20:46:13.199Z,100626.59
2023-03-12T20:48:43.435Z,100624.78
2023-03-12T20:51:11.209Z,100636.09
2023-03-12T20:53:38.795Z,100631.72
2023-03-12T20:56:07.180Z,100631.81
2023-03-12T20:58:34.977Z,100628.34
2023-03-12T21:01:04.765Z,100647.50
2023-03-12T21:03:33.542Z,100636.28
2023-03-12T21:06:02.836Z,100643.25
2023-03-12T21:08:31.215Z,100650.25
2023-03-12T21:10:58.862Z,100655.50
2023-03-12T21:13:27.549Z,100649.53
2023-03-12T21:15:55.074Z,100646.25
2023-03-12T21:18:23.991Z,100648.97
2023-03-12T21:20:51.729Z,100659.25
2023-03-12T21:23:20.315Z,100666.22
2023-03-12T21:25:47.824Z,100660.19
2023-03-12T21:28:15.684Z,100663.69
2023-03-12T21:30:43.192Z,100673.19
2023-03-12T21:33:11.481Z,100677.53
2023-03-12T21:35:44.025Z,100686.31
2023-03-12T21:38:17.549Z,100690.63
2023-03-12T21:40:45.121Z,100689.84
2023-03-12T21:43:12.647Z,100700.25
2023-03-12T21:45:42.080Z,100692.38
2023-03-12T21:48:09.688Z,100705.41
2023-03-12T21:50:37.212Z,100703.72
2023-03-12T21:53:11.645Z,100720.13
2023-03-12T21:55:54.938Z,100715.00
2023-03-12T21:58:23.696Z,100719.16
2023-03-12T22:00:51.762Z,100713.94
2023-03-12T22:03:19.918Z,100719.88
2023-03-12T22:05:52.216Z,100726.75
2023-03-12T22:08:22.325Z,100731.19
2023-03-12T22:10:51.224Z,100733.84
2023-03-12T22:13:18.798Z,100729.66
2023-03-12T22:15:54.012Z,100733.16
2023-03-12T22:18:22.311Z,100738.47
2023-03-12T22:20:51.875Z,100741.22
2023-03-12T22:23:19.856Z,100748.19
2023-03-12T22:25:47.300Z,100754.19
2023-03-12T22:28:15.830Z,100762.06
2023-03-12T22:30:43.781Z,100761.25
2023-03-12T22:33:12.020Z,100765.63
2023-03-12T22:35:48.232Z,100767.38
2023-03-12T22:38:16.527Z,100782.19
2023-03-12T22:40:45.785Z,100781.38
2023-03-12T22:43:13.772Z,100784.00
2023-03-12T22:45:41.241Z,100772.66
2023-03-12T22:48:08.760Z,100782.28
2023-03-12T22:50:36.665Z,100792.66
2023-03-12T22:53:04.550Z,100796.13
2023-03-12T22:55:32.498Z,100796.13
2023-03-12T22:58:02.221Z,100795.25
2023-03-12T23:00:29.845Z,100800.50
2023-03-12T23:02:57.521Z,100809.13
2023-03-12T23:05:25.070Z,100816.06
2023-03-12T23:07:52.971Z,100822.16
2023-03-12T23:10:24.436Z,100821.25
2023-03-12T23:12:57.620Z,100835.97
2023-03-12T23:15:35.105Z,100840.41
2023-03-12T23:18:08.832Z,100839.53
2023-03-12T23:20:36.598Z,100842.19
2023-03-12T23:23:04.410Z,100843.94
2023-03-12T23:25:32.606Z,100850.06
2023-03-12T23:28:00.218Z,100862.22
2023-03-12T23:30:27.876Z,100863.16
2023-03-12T23:32:55.989Z,100864.91
2023-03-12T23:35:23.745Z,100867.59
2023-03-12T23:37:51.454Z,100869.34
2023-03-12T23:40:19.131Z,100871.09
2023-03-12T23:42:46.649Z,100870.28
2023-03-12T23:45:14.262Z,100882.47
2023-03-12T23:47:41.845Z,100887.69
2023-03-12T23:50:10.280Z,100881.59
2023-03-12T23:52:38.058Z,100892.03
2023-03-12T23:55:09.933Z,100892.06
2023-03-12T23:57:37.720Z,100885.94
